Time,TemperatureF,DewpointF,PressureIn,WindDirection,WindDirectionDegrees,WindSpeedMPH,WindSpeedGustMPH,Humidity,HourlyPrecipIn,Conditions,Clouds,dailyrainin,SoftwareType,DateUTC
2013-05-10 00:04:00,56.9,51.8,30.20,ENE,59,2.0,4.0,83,0.00,,---,0.00,VWS V14.01,2013-05-10 07:04:00,
2013-05-10 00:09:00,56.7,51.6,30.20,ENE,59,1.0,2.0,83,0.00,,---,0.00,VWS V14.01,2013-05-10 07:09:00,
2013-05-10 00:14:00,56.5,51.7,30.20,ENE,59,3.0,3.0,84,0.00,,---,0.00,VWS V14.01,2013-05-10 07:14:00,
2013-05-10 00:19:00,56.3,51.9,30.20,ENE,63,3.0,3.0,85,0.00,,---,0.00,VWS V14.01,2013-05-10 07:19:00,
2013-05-10 00:24:00,56.2,51.8,30.20,NE,55,2.0,3.0,85,0.00,,---,0.00,VWS V14.01,2013-05-10 07:24:00,
2013-05-10 00:29:00,56.1,52.0,30.20,ENE,67,2.0,4.0,86,0.00,,---,0.00,VWS V14.01,2013-05-10 07:29:00,
2013-05-10 00:34:00,55.9,51.8,30.20,ENE,76,0.0,3.0,86,0.00,,---,0.00,VWS V14.01,2013-05-10 07:34:00,
2013-05-10 00:39:00,55.8,51.7,30.20,ENE,76,0.0,0.0,86,0.00,,---,0.00,VWS V14.01,2013-05-10 07:39:00,
2013-05-10 00:44:00,55.6,51.8,30.20,ENE,76,4.0,4.0,87,0.00,,---,0.00,VWS V14.01,2013-05-10 07:44:00,
2013-05-10 00:49:00,55.6,52.1,30.20,ENE,74,4.0,4.0,88,0.00,,---,0.00,VWS V14.01,2013-05-10 07:49:00,
2013-05-10 00:54:00,55.5,52.0,30.20,ENE,74,1.0,2.0,88,0.00,,---,0.00,VWS V14.01,2013-05-10 07:54:00,
2013-05-10 00:59:00,55.4,52.2,30.20,ENE,74,2.0,3.0,89,0.00,,---,0.00,VWS V14.01,2013-05-10 07:59:00,
2013-05-10 01:04:00,55.4,52.2,30.21,ENE,73,2.0,5.0,89,0.00,,---,0.00,VWS V14.01,2013-05-10 08:04:00,
2013-05-10 01:09:00,55.3,52.1,30.21,ENE,73,2.0,3.0,89,0.00,,---,0.00,VWS V14.01,2013-05-10 08:09:00,
2013-05-10 01:14:00,55.1,52.2,30.21,ENE,73,3.0,5.0,90,0.00,,---,0.00,VWS V14.01,2013-05-10 08:14:00,
2013-05-10 01:19:00,55.0,52.1,30.21,ENE,73,0.0,2.0,90,0.00,,---,0.00,VWS V14.01,2013-05-10 08:19:00,
2013-05-10 01:24:00,54.9,52.0,30.21,ENE,73,0.0,2.0,90,0.00,,---,0.00,VWS V14.01,2013-05-10 08:24:00,
2013-05-10 01:29:00,54.6,51.7,30.21,ENE,73,0.0,0.0,90,0.00,,---,0.00,VWS V14.01,2013-05-10 08:29:00,
2013-05-10 01:34:00,54.5,51.9,30.21,ENE,73,0.0,0.0,91,0.00,,---,0.00,VWS V14.01,2013-05-10 08:34:00,
2013-05-10 01:39:00,54.3,51.7,30.21,ENE,73,0.0,0.0,91,0.00,,---,0.00,VWS V14.01,2013-05-10 08:39:00,
2013-05-10 01:44:00,54.1,51.5,30.21,ENE,73,0.0,0.0,91,0.00,,---,0.00,VWS V14.01,2013-05-10 08:44:00,
2013-05-10 01:49:00,53.9,51.3,30.21,ENE,73,0.0,1.0,91,0.00,,---,0.00,VWS V14.01,2013-05-10 08:49:00,
2013-05-10 01:54:00,53.7,51.1,30.21,ENE,73,0.0,0.0,91,0.00,,---,0.00,VWS V14.01,2013-05-10 08:54:00,
2013-05-10 01:59:00,53.5,50.9,30.21,ENE,73,0.0,0.0,91,0.00,,---,0.00,VWS V14.01,2013-05-10 08:59:00,
2013-05-10 02:04:00,53.4,51.1,30.21,ENE,73,0.0,0.0,92,0.00,,---,0.00,VWS V14.01,2013-05-10 09:04:00,
2013-05-10 02:09:00,53.3,51.0,30.21,ENE,73,0.0,1.0,92,0.00,,---,0.00,VWS V14.01,2013-05-10 09:09:00,
2013-05-10 02:14:00,53.2,50.9,30.21,ENE,73,0.0,0.0,92,0.00,,---,0.00,VWS V14.01,2013-05-10 09:14:00,
2013-05-10 02:19:00,53.0,50.7,30.21,ENE,73,0.0,0.0,92,0.00,,---,0.00,VWS V14.01,2013-05-10 09:19:00,
2013-05-10 02:24:00,52.9,50.6,30.21,ENE,73,0.0,0.0,92,0.00,,---,0.00,VWS V14.01,2013-05-10 09:24:00,
2013-05-10 02:29:00,52.8,50.5,30.21,ENE,73,0.0,0.0,92,0.00,,---,0.00,VWS V14.01,2013-05-10 09:29:00,
2013-05-10 02:34:00,52.7,50.5,30.21,ENE,73,0.0,0.0,92,0.00,,---,0.00,VWS V14.01,2013-05-10 09:34:00,
2013-05-10 02:39:00,52.6,50.6,30.21,ENE,73,0.0,0.0,93,0.00,,---,0.00,VWS V14.01,2013-05-10 09:39:00,
2013-05-10 02:44:00,52.6,50.6,30.22,ENE,73,0.0,0.0,93,0.00,,---,0.00,VWS V14.01,2013-05-10 09:44:00,
2013-05-10 02:49:00,52.8,51.1,30.21,ENE,73,0.0,0.0,94,0.00,,---,0.00,VWS V14.01,2013-05-10 09:49:00,
2013-05-10 02:54:00,52.7,51.0,30.21,ENE,73,0.0,0.0,94,0.00,,---,0.00,VWS V14.01,2013-05-10 09:54:00,
2013-05-10 02:59:00,52.6,50.6,30.22,ENE,73,0.0,0.0,93,0.00,,---,0.00,VWS V14.01,2013-05-10 09:59:00,
2013-05-10 03:04:00,52.4,50.4,30.22,ENE,73,0.0,0.0,93,0.00,,---,0.00,VWS V14.01,2013-05-10 10:04:00,
2013-05-10 03:09:00,52.2,50.2,30.22,ENE,73,0.0,0.0,93,0.00,,---,0.00,VWS V14.01,2013-05-10 10:09:00,
2013-05-10 03:14:00,52.0,50.0,30.22,ENE,73,0.0,0.0,93,0.00,,---,0.00,VWS V14.01,2013-05-10 10:14:00,
2013-05-10 03:19:00,52.0,50.3,30.22,ENE,73,0.0,0.0,94,0.00,,---,0.00,VWS V14.01,2013-05-10 10:19:00,
2013-05-10 03:24:00,52.4,51.0,30.22,ENE,73,0.0,0.0,95,0.00,,---,0.00,VWS V14.01,2013-05-10 10:24:00,
2013-05-10 03:29:00,52.4,50.7,30.22,ENE,73,0.0,0.0,94,0.00,,---,0.00,VWS V14.01,2013-05-10 10:29:00,
2013-05-10 03:34:00,52.1,50.1,30.22,ENE,73,1.0,2.0,93,0.00,,---,0.00,VWS V14.01,2013-05-10 10:34:00,
2013-05-10 03:39:00,52.2,50.5,30.22,ENE,73,0.0,0.0,94,0.00,,---,0.00,VWS V14.01,2013-05-10 10:39:00,
2013-05-10 03:44:00,52.2,50.5,30.22,ENE,73,0.0,0.0,94,0.00,,---,0.00,VWS V14.01,2013-05-10 10:44:00,
2013-05-10 03:49:00,52.1,50.1,30.22,ENE,73,0.0,0.0,93,0.00,,---,0.00,VWS V14.01,2013-05-10 10:49:00,
2013-05-10 03:54:00,51.7,49.8,30.22,ENE,73,0.0,0.0,93,0.00,,---,0.00,VWS V14.01,2013-05-10 10:54:00,
2013-05-10 03:59:00,51.6,49.9,30.22,ENE,73,0.0,0.0,94,0.00,,---,0.00,VWS V14.01,2013-05-10 10:59:00,
2013-05-10 04:04:00,52.0,50.6,30.22,ENE,73,0.0,0.0,95,0.00,,---,0.00,VWS V14.01,2013-05-10 11:04:00,
2013-05-10 04:09:00,52.0,50.3,30.22,ENE,73,0.0,0.0,94,0.00,,---,0.00,VWS V14.01,2013-05-10 11:09:00,
2013-05-10 04:14:00,51.8,49.8,30.22,ENE,73,0.0,1.0,93,0.00,,---,0.00,VWS V14.01,2013-05-10 11:14:00,
2013-05-10 04:19:00,51.4,49.5,30.22,ENE,73,0.0,0.0,93,0.00,,---,0.00,VWS V14.01,2013-05-10 11:19:00,
2013-05-10 04:24:00,51.2,49.2,30.22,ENE,73,0.0,0.0,93,0.00,,---,0.00,VWS V14.01,2013-05-10 11:24:00,
2013-05-10 04:29:00,50.9,49.0,30.22,ENE,73,0.0,0.0,93,0.00,,---,0.00,VWS V14.01,2013-05-10 11:29:00,
2013-05-10 04:34:00,50.7,48.8,30.22,ENE,73,0.0,0.0,93,0.00,,---,0.00,VWS V14.01,2013-05-10 11:34:00,
2013-05-10 04:39:00,50.6,48.9,30.22,ENE,73,0.0,0.0,94,0.00,,---,0.00,VWS V14.01,2013-05-10 11:39:00,
2013-05-10 04:44:00,50.4,48.5,30.22,ENE,73,0.0,0.0,93,0.00,,---,0.00,VWS V14.01,2013-05-10 11:44:00,
2013-05-10 04:49:00,50.2,48.5,30.22,ENE,73,0.0,0.0,94,0.00,,---,0.00,VWS V14.01,2013-05-10 11:49:00,
2013-05-10 04:54:00,50.2,48.5,30.22,ENE,73,0.0,0.0,94,0.00,,---,0.00,VWS V14.01,2013-05-10 11:54:00,
2013-05-10 04:59:00,50.4,49.0,30.21,ENE,73,1.0,2.0,95,0.00,,---,0.00,VWS V14.01,2013-05-10 11:59:00,
2013-05-10 05:04:00,50.4,49.0,30.21,ENE,73,0.0,0.0,95,0.00,,---,0.00,VWS V14.01,2013-05-10 12:04:00,
2013-05-10 05:09:00,50.1,48.4,30.22,ENE,73,0.0,0.0,94,0.00,,---,0.00,VWS V14.01,2013-05-10 12:09:00,
2013-05-10 05:14:00,49.9,48.2,30.21,ENE,73,0.0,0.0,94,0.00,,---,0.00,VWS V14.01,2013-05-10 12:14:00,
2013-05-10 05:19:00,49.9,48.5,30.21,ENE,73,2.0,3.0,95,0.00,,---,0.00,VWS V14.01,2013-05-10 12:19:00,
2013-05-10 05:24:00,49.9,48.5,30.21,ENE,73,0.0,0.0,95,0.00,,---,0.00,VWS V14.01,2013-05-10 12:24:00,
2013-05-10 05:29:00,49.6,48.0,30.21,ENE,73,0.0,0.0,94,0.00,,---,0.00,VWS V14.01,2013-05-10 12:29:00,
2013-05-10 05:34:00,49.5,47.8,30.21,ENE,73,0.0,0.0,94,0.00,,---,0.00,VWS V14.01,2013-05-10 12:34:00,
2013-05-10 05:39:00,49.6,48.2,30.21,ENE,73,0.0,0.0,95,0.00,,---,0.00,VWS V14.01,2013-05-10 12:39:00,
2013-05-10 05:45:00,49.7,48.6,30.21,ENE,73,0.0,0.0,96,0.00,,---,0.00,VWS V14.01,2013-05-10 12:45:00,
2013-05-10 05:50:00,49.9,48.8,30.21,ENE,73,0.0,0.0,96,0.00,,---,0.00,VWS V14.01,2013-05-10 12:50:00,
2013-05-10 05:55:00,49.8,48.4,30.21,ENE,73,0.0,0.0,95,0.00,,---,0.00,VWS V14.01,2013-05-10 12:55:00,
2013-05-10 06:00:00,49.6,48.2,30.21,ENE,73,0.0,0.0,95,0.00,,---,0.00,VWS V14.01,2013-05-10 13:00:00,
2013-05-10 06:05:00,49.5,48.1,30.21,ENE,73,0.0,0.0,95,0.00,,---,0.00,VWS V14.01,2013-05-10 13:05:00,
2013-05-10 06:10:00,49.8,48.7,30.21,ENE,73,0.0,0.0,96,0.00,,---,0.00,VWS V14.01,2013-05-10 13:10:00,
2013-05-10 06:15:00,49.9,48.8,30.21,ENE,73,0.0,0.0,96,0.00,,---,0.00,VWS V14.01,2013-05-10 13:15:00,
2013-05-10 06:20:00,49.8,48.7,30.21,ENE,73,0.0,0.0,96,0.00,,---,0.00,VWS V14.01,2013-05-10 13:20:00,
2013-05-10 06:25:00,49.7,48.3,30.22,ENE,73,0.0,0.0,95,0.00,,---,0.00,VWS V14.01,2013-05-10 13:25:00,
2013-05-10 06:30:00,49.7,48.6,30.22,ENE,73,0.0,0.0,96,0.00,,---,0.00,VWS V14.01,2013-05-10 13:30:00,
2013-05-10 06:35:00,49.8,48.7,30.22,ENE,73,0.0,0.0,96,0.00,,---,0.00,VWS V14.01,2013-05-10 13:35:00,
2013-05-10 06:40:00,50.0,48.9,30.23,ENE,73,1.0,1.0,96,0.00,,---,0.00,VWS V14.01,2013-05-10 13:40:00,
2013-05-10 06:45:00,50.2,49.4,30.23,ENE,73,0.0,0.0,97,0.00,,---,0.00,VWS V14.01,2013-05-10 13:45:00,
2013-05-10 06:51:00,50.3,49.5,30.23,ENE,73,0.0,0.0,97,0.00,,---,0.00,VWS V14.01,2013-05-10 13:51:00,
2013-05-10 06:56:00,50.4,49.6,30.23,ENE,73,0.0,0.0,97,0.00,,---,0.00,VWS V14.01,2013-05-10 13:56:00,
2013-05-10 07:01:00,50.4,49.3,30.23,ENE,73,0.0,0.0,96,0.00,,---,0.00,VWS V14.01,2013-05-10 14:01:00,
2013-05-10 07:06:00,50.4,49.3,30.23,ENE,73,0.0,0.0,96,0.00,,---,0.00,VWS V14.01,2013-05-10 14:06:00,
2013-05-10 07:11:00,50.5,49.4,30.23,ENE,73,0.0,1.0,96,0.00,,---,0.00,VWS V14.01,2013-05-10 14:11:00,
2013-05-10 07:16:00,50.6,49.8,30.24,ENE,73,0.0,0.0,97,0.00,,---,0.00,VWS V14.01,2013-05-10 14:16:00,
2013-05-10 07:21:00,50.7,49.9,30.24,ENE,73,0.0,0.0,97,0.00,,---,0.00,VWS V14.01,2013-05-10 14:21:00,
2013-05-10 07:26:00,51.0,50.2,30.23,ENE,73,0.0,0.0,97,0.00,,---,0.00,VWS V14.01,2013-05-10 14:26:00,
2013-05-10 07:31:00,51.2,50.4,30.24,ENE,73,0.0,1.0,97,0.00,,---,0.00,VWS V14.01,2013-05-10 14:31:00,
2013-05-10 07:36:00,51.4,50.6,30.24,ENE,73,0.0,1.0,97,0.00,,---,0.00,VWS V14.01,2013-05-10 14:36:00,
2013-05-10 07:41:00,51.6,50.8,30.24,ENE,73,0.0,1.0,97,0.00,,---,0.00,VWS V14.01,2013-05-10 14:41:00,
2013-05-10 07:46:00,51.8,51.0,30.24,ENE,73,0.0,1.0,97,0.00,,---,0.00,VWS V14.01,2013-05-10 14:46:00,
2013-05-10 07:51:00,52.0,51.2,30.24,ENE,73,0.0,0.0,97,0.00,,---,0.00,VWS V14.01,2013-05-10 14:51:00,
2013-05-10 07:56:00,52.2,51.4,30.24,ENE,73,0.0,0.0,97,0.00,,---,0.00,VWS V14.01,2013-05-10 14:56:00,
2013-05-10 08:01:00,52.3,51.5,30.24,ENE,73,0.0,0.0,97,0.00,,---,0.00,VWS V14.01,2013-05-10 15:01:00,
2013-05-10 08:06:00,52.6,51.8,30.24,ENE,73,0.0,0.0,97,0.00,,---,0.00,VWS V14.01,2013-05-10 15:06:00,
2013-05-10 08:11:00,52.8,52.0,30.24,ENE,73,0.0,0.0,97,0.00,,---,0.00,VWS V14.01,2013-05-10 15:11:00,
2013-05-10 08:16:00,53.0,52.2,30.24,ENE,73,0.0,1.0,97,0.00,,---,0.00,VWS V14.01,2013-05-10 15:16:00,
2013-05-10 08:21:00,53.4,52.6,30.24,ENE,73,0.0,1.0,97,0.00,,---,0.00,VWS V14.01,2013-05-10 15:21:00,
2013-05-10 08:26:00,53.9,53.1,30.24,ENE,73,0.0,0.0,97,0.00,,---,0.00,VWS V14.01,2013-05-10 15:26:00,
2013-05-10 08:31:00,54.6,53.8,30.24,ENE,73,0.0,0.0,97,0.00,,---,0.00,VWS V14.01,2013-05-10 15:31:00,
2013-05-10 08:36:00,55.2,54.4,30.24,ENE,74,0.0,3.0,97,0.00,,---,0.00,VWS V14.01,2013-05-10 15:36:00,
2013-05-10 08:41:00,55.8,54.4,30.24,WSW,255,3.0,4.0,95,0.00,,---,0.00,VWS V14.01,2013-05-10 15:41:00,
2013-05-10 08:46:00,56.4,54.4,30.24,WSW,257,2.0,2.0,93,0.00,,---,0.00,VWS V14.01,2013-05-10 15:46:00,
2013-05-10 08:51:00,56.9,54.6,30.24,WSW,257,0.0,2.0,92,0.00,,---,0.00,VWS V14.01,2013-05-10 15:51:00,
2013-05-10 08:56:00,57.5,54.9,30.24,WSW,257,0.0,1.0,91,0.00,,---,0.00,VWS V14.01,2013-05-10 15:56:00,
2013-05-10 09:01:00,58.3,55.1,30.23,WSW,257,1.0,2.0,89,0.00,,---,0.00,VWS V14.01,2013-05-10 16:01:00,
2013-05-10 09:06:00,59.1,54.9,30.23,SW,230,2.0,2.0,86,0.00,,---,0.00,VWS V14.01,2013-05-10 16:06:00,
2013-05-10 09:11:00,59.6,54.8,30.23,SW,231,3.0,4.0,84,0.00,,---,0.00,VWS V14.01,2013-05-10 16:11:00,
2013-05-10 09:16:00,59.9,55.1,30.24,WSW,254,3.0,4.0,84,0.00,,---,0.00,VWS V14.01,2013-05-10 16:16:00,
2013-05-10 09:21:00,60.2,55.3,30.23,West,265,1.0,3.0,84,0.00,,---,0.00,VWS V14.01,2013-05-10 16:21:00,
2013-05-10 09:26:00,60.7,55.5,30.23,SW,229,0.0,2.0,83,0.00,,---,0.00,VWS V14.01,2013-05-10 16:26:00,
2013-05-10 09:31:00,61.2,55.0,30.23,SW,229,1.0,1.0,80,0.00,,---,0.00,VWS V14.01,2013-05-10 16:31:00,
2013-05-10 09:36:00,61.6,55.0,30.23,SW,229,1.0,2.0,79,0.00,,---,0.00,VWS V14.01,2013-05-10 16:36:00,
2013-05-10 09:41:00,62.4,55.5,30.23,SW,228,0.0,2.0,78,0.00,,---,0.00,VWS V14.01,2013-05-10 16:41:00,
2013-05-10 09:46:00,63.5,55.4,30.23,SSE,161,0.0,1.0,75,0.00,,---,0.00,VWS V14.01,2013-05-10 16:46:00,
2013-05-10 09:51:00,64.1,56.0,30.23,SW,214,0.0,2.0,75,0.00,,---,0.00,VWS V14.01,2013-05-10 16:51:00,
2013-05-10 09:56:00,64.3,57.0,30.23,WSW,258,1.0,2.0,77,0.00,,---,0.00,VWS V14.01,2013-05-10 16:56:00,
2013-05-10 10:01:00,64.4,56.7,30.23,WSW,258,2.0,2.0,76,0.00,,---,0.00,VWS V14.01,2013-05-10 17:01:00,
2013-05-10 10:06:00,64.7,56.6,30.23,West,261,0.0,3.0,75,0.00,,---,0.00,VWS V14.01,2013-05-10 17:06:00,
2013-05-10 10:11:00,64.9,56.4,30.23,West,272,2.0,3.0,74,0.00,,---,0.00,VWS V14.01,2013-05-10 17:11:00,
2013-05-10 10:16:00,65.0,56.5,30.23,West,272,1.0,4.0,74,0.00,,---,0.00,VWS V14.01,2013-05-10 17:16:00,
2013-05-10 10:21:00,65.2,56.3,30.23,West,270,3.0,4.0,73,0.00,,---,0.00,VWS V14.01,2013-05-10 17:21:00,
2013-05-10 10:26:00,65.5,56.6,30.23,WNW,292,2.0,5.0,73,0.00,,---,0.00,VWS V14.01,2013-05-10 17:26:00,
2013-05-10 10:31:00,65.7,56.4,30.23,WNW,282,2.0,5.0,72,0.00,,---,0.00,VWS V14.01,2013-05-10 17:31:00,
2013-05-10 10:36:00,65.9,56.6,30.23,WNW,283,2.0,3.0,72,0.00,,---,0.00,VWS V14.01,2013-05-10 17:36:00,
2013-05-10 10:41:00,66.0,56.3,30.23,WNW,282,3.0,4.0,71,0.00,,---,0.00,VWS V14.01,2013-05-10 17:41:00,
2013-05-10 10:46:00,66.4,57.1,30.23,WNW,295,0.0,2.0,72,0.00,,---,0.00,VWS V14.01,2013-05-10 17:46:00,
2013-05-10 10:51:00,66.8,56.3,30.23,West,281,2.0,3.0,69,0.00,,---,0.00,VWS V14.01,2013-05-10 17:51:00,
2013-05-10 10:56:00,67.6,55.8,30.23,WNW,298,1.0,1.0,66,0.00,,---,0.00,VWS V14.01,2013-05-10 17:56:00,
2013-05-10 11:01:00,68.3,56.9,30.23,WSW,246,3.0,4.0,67,0.00,,---,0.00,VWS V14.01,2013-05-10 18:01:00,
2013-05-10 11:06:00,68.6,56.8,30.23,West,261,0.0,3.0,66,0.00,,---,0.00,VWS V14.01,2013-05-10 18:06:00,
2013-05-10 11:11:00,69.0,58.0,30.23,NW,304,1.0,3.0,68,0.00,,---,0.00,VWS V14.01,2013-05-10 18:11:00,
2013-05-10 11:16:00,69.1,56.8,30.22,West,264,3.0,4.0,65,0.00,,---,0.00,VWS V14.01,2013-05-10 18:16:00,
2013-05-10 11:21:00,68.9,56.2,30.22,WSW,248,1.0,3.0,64,0.00,,---,0.00,VWS V14.01,2013-05-10 18:21:00,
2013-05-10 11:26:00,69.1,56.4,30.22,West,261,0.0,1.0,64,0.00,,---,0.00,VWS V14.01,2013-05-10 18:26:00,
2013-05-10 11:31:00,69.7,57.0,30.22,West,279,3.0,4.0,64,0.00,,---,0.00,VWS V14.01,2013-05-10 18:31:00,
2013-05-10 11:36:00,70.2,56.1,30.22,WNW,296,2.0,4.0,61,0.00,,---,0.00,VWS V14.01,2013-05-10 18:36:00,
2013-05-10 11:41:00,70.7,55.7,30.22,WSW,252,2.0,6.0,59,0.00,,---,0.00,VWS V14.01,2013-05-10 18:41:00,
2013-05-10 11:46:00,70.7,54.2,30.22,West,264,4.0,5.0,56,0.00,,---,0.00,VWS V14.01,2013-05-10 18:46:00,
2013-05-10 11:51:00,70.7,56.2,30.22,West,271,0.0,3.0,60,0.00,,---,0.00,VWS V14.01,2013-05-10 18:51:00,
2013-05-10 11:56:00,71.1,55.6,30.22,West,279,3.0,5.0,58,0.00,,---,0.00,VWS V14.01,2013-05-10 18:56:00,
2013-05-10 12:01:00,71.2,57.1,30.22,SW,234,2.0,3.0,61,0.00,,---,0.00,VWS V14.01,2013-05-10 19:01:00,
2013-05-10 12:06:00,71.6,56.5,30.22,West,281,4.0,6.0,59,0.00,,---,0.00,VWS V14.01,2013-05-10 19:06:00,
2013-05-10 12:11:00,71.7,56.6,30.21,West,264,1.0,3.0,59,0.00,,---,0.00,VWS V14.01,2013-05-10 19:11:00,
2013-05-10 12:16:00,72.1,56.0,30.21,West,272,4.0,5.0,57,0.00,,---,0.00,VWS V14.01,2013-05-10 19:16:00,
2013-05-10 12:21:00,72.6,55.5,30.21,West,277,2.0,4.0,55,0.00,,---,0.00,VWS V14.01,2013-05-10 19:21:00,
2013-05-10 12:26:00,73.1,56.5,30.21,West,279,2.0,2.0,56,0.00,,---,0.00,VWS V14.01,2013-05-10 19:26:00,
2013-05-10 12:31:00,73.3,57.2,30.21,WNW,296,4.0,4.0,57,0.00,,---,0.00,VWS V14.01,2013-05-10 19:31:00,
2013-05-10 12:36:00,73.8,56.6,30.21,NW,307,4.0,4.0,55,0.00,,---,0.00,VWS V14.01,2013-05-10 19:36:00,
2013-05-10 12:41:00,74.6,57.9,30.21,West,261,5.0,5.0,56,0.00,,---,0.00,VWS V14.01,2013-05-10 19:41:00,
2013-05-10 12:46:00,74.5,56.3,30.20,WSW,257,4.0,5.0,53,0.00,,---,0.00,VWS V14.01,2013-05-10 19:46:00,
2013-05-10 12:52:00,74.1,56.4,30.20,WNW,284,4.0,7.0,54,0.00,,---,0.00,VWS V14.01,2013-05-10 19:52:00,
2013-05-10 12:57:00,74.3,56.1,30.20,WNW,285,4.0,4.0,53,0.00,,---,0.00,VWS V14.01,2013-05-10 19:57:00,
2013-05-10 13:02:00,74.4,55.7,30.20,West,259,2.0,3.0,52,0.00,,---,0.00,VWS V14.01,2013-05-10 20:02:00,
2013-05-10 13:07:00,74.4,55.7,30.20,West,261,6.0,7.0,52,0.00,,---,0.00,VWS V14.01,2013-05-10 20:07:00,
2013-05-10 13:12:00,74.6,55.3,30.20,SW,223,3.0,7.0,51,0.00,,---,0.00,VWS V14.01,2013-05-10 20:12:00,
2013-05-10 13:17:00,74.8,54.9,30.20,West,263,4.0,6.0,50,0.00,,---,0.00,VWS V14.01,2013-05-10 20:17:00,
2013-05-10 13:22:00,75.2,54.8,30.20,WNW,283,3.0,6.0,49,0.00,,---,0.00,VWS V14.01,2013-05-10 20:22:00,
2013-05-10 13:27:00,75.4,54.4,30.19,WSW,244,6.0,6.0,48,0.00,,---,0.00,VWS V14.01,2013-05-10 20:27:00,
2013-05-10 13:32:00,75.5,55.0,30.19,WSW,249,4.0,6.0,49,0.00,,---,0.00,VWS V14.01,2013-05-10 20:32:00,
2013-05-10 13:37:00,75.5,53.9,30.19,WNW,294,7.0,7.0,47,0.00,,---,0.00,VWS V14.01,2013-05-10 20:37:00,
2013-05-10 13:42:00,75.7,54.6,30.19,West,274,3.0,6.0,48,0.00,,---,0.00,VWS V14.01,2013-05-10 20:42:00,
2013-05-10 13:47:00,75.9,56.0,30.19,West,267,6.0,7.0,50,0.00,,---,0.00,VWS V14.01,2013-05-10 20:47:00,
2013-05-10 13:52:00,76.2,55.1,30.19,SW,234,5.0,7.0,48,0.00,,---,0.00,VWS V14.01,2013-05-10 20:52:00,
2013-05-10 13:57:00,76.2,55.1,30.19,WSW,254,2.0,5.0,48,0.00,,---,0.00,VWS V14.01,2013-05-10 20:57:00,
2013-05-10 14:02:00,76.4,56.4,30.19,NW,310,4.0,4.0,50,0.00,,---,0.00,VWS V14.01,2013-05-10 21:02:00,
2013-05-10 14:07:00,76.5,55.4,30.19,West,275,6.0,7.0,48,0.00,,---,0.00,VWS V14.01,2013-05-10 21:07:00,
2013-05-10 14:12:00,76.5,55.4,30.19,WSW,242,4.0,4.0,48,0.00,,---,0.00,VWS V14.01,2013-05-10 21:12:00,
2013-05-10 14:17:00,76.8,55.7,30.18,WSW,257,3.0,7.0,48,0.00,,---,0.00,VWS V14.01,2013-05-10 21:17:00,
2013-05-10 14:22:00,77.4,54.4,30.18,West,273,4.0,9.0,45,0.00,,---,0.00,VWS V14.01,2013-05-10 21:22:00,
2013-05-10 14:27:00,77.6,55.8,30.18,West,268,4.0,8.0,47,0.00,,---,0.00,VWS V14.01,2013-05-10 21:27:00,
2013-05-10 14:32:00,77.5,55.1,30.18,NW,312,3.0,9.0,46,0.00,,---,0.00,VWS V14.01,2013-05-10 21:32:00,
2013-05-10 14:37:00,77.6,54.6,30.18,WSW,251,8.0,11.0,45,0.00,,---,0.00,VWS V14.01,2013-05-10 21:37:00,
2013-05-10 14:42:00,77.2,54.8,30.18,West,263,5.0,6.0,46,0.00,,---,0.00,VWS V14.01,2013-05-10 21:42:00,
2013-05-10 14:47:00,77.7,55.3,30.18,West,281,6.0,6.0,46,0.00,,---,0.00,VWS V14.01,2013-05-10 21:47:00,
2013-05-10 14:52:00,78.2,55.1,30.18,West,280,5.0,7.0,45,0.00,,---,0.00,VWS V14.01,2013-05-10 21:52:00,
2013-05-10 14:57:00,78.4,55.3,30.18,SW,235,2.0,6.0,45,0.00,,---,0.00,VWS V14.01,2013-05-10 21:57:00,
2013-05-10 14:58:00,78.4,55.3,30.18,WNW,297,5.0,6.0,45,0.00,,---,0.00,VWS V14.01,2013-05-10 21:58:00,
2013-05-10 14:59:00,78.5,54.2,30.18,West,264,6.0,8.0,43,0.00,,---,0.00,VWS V14.01,2013-05-10 21:59:00,
2013-05-10 15:01:00,78.5,54.2,30.18,WSW,246,6.0,7.0,43,0.00,,---,0.00,VWS V14.01,2013-05-10 22:01:00,
2013-05-10 15:06:00,78.3,53.3,30.18,West,281,4.0,9.0,42,0.00,,---,0.00,VWS V14.01,2013-05-10 22:06:00,
2013-05-10 15:11:00,78.2,54.5,30.18,West,279,5.0,7.0,44,0.00,,---,0.00,VWS V14.01,2013-05-10 22:11:00,
2013-05-10 15:16:00,78.3,54.6,30.18,West,267,8.0,8.0,44,0.00,,---,0.00,VWS V14.01,2013-05-10 22:16:00,
2013-05-10 15:21:00,78.3,55.2,30.18,West,269,7.0,8.0,45,0.00,,---,0.00,VWS V14.01,2013-05-10 22:21:00,
2013-05-10 15:26:00,78.2,55.1,30.17,West,265,4.0,7.0,45,0.00,,---,0.00,VWS V14.01,2013-05-10 22:26:00,
2013-05-10 15:31:00,78.4,55.3,30.17,West,262,4.0,7.0,45,0.00,,---,0.00,VWS V14.01,2013-05-10 22:31:00,
2013-05-10 15:36:00,78.5,55.4,30.17,West,267,5.0,7.0,45,0.00,,---,0.00,VWS V14.01,2013-05-10 22:36:00,
2013-05-10 15:41:00,78.5,54.8,30.17,WSW,244,5.0,7.0,44,0.00,,---,0.00,VWS V14.01,2013-05-10 22:41:00,
2013-05-10 15:46:00,78.3,54.6,30.17,West,261,8.0,8.0,44,0.00,,---,0.00,VWS V14.01,2013-05-10 22:46:00,
2013-05-10 15:51:00,78.1,55.0,30.17,West,267,5.0,7.0,45,0.00,,---,0.00,VWS V14.01,2013-05-10 22:51:00,
2013-05-10 15:56:00,78.4,55.3,30.17,WNW,302,5.0,7.0,45,0.00,,---,0.00,VWS V14.01,2013-05-10 22:56:00,
2013-05-10 16:01:00,78.6,54.9,30.17,WNW,298,2.0,6.0,44,0.00,,---,0.00,VWS V14.01,2013-05-10 23:01:00,
2013-05-10 16:06:00,78.8,54.4,30.17,West,269,6.0,7.0,43,0.00,,---,0.00,VWS V14.01,2013-05-10 23:06:00,
2013-05-10 16:11:00,78.9,55.2,30.17,West,272,3.0,3.0,44,0.00,,---,0.00,VWS V14.01,2013-05-10 23:11:00,
2013-05-10 16:16:00,79.2,54.8,30.17,SW,235,6.0,9.0,43,0.00,,---,0.00,VWS V14.01,2013-05-10 23:16:00,
2013-05-10 16:21:00,79.1,54.1,30.17,West,269,3.0,8.0,42,0.00,,---,0.00,VWS V14.01,2013-05-10 23:21:00,
2013-05-10 16:26:00,78.9,54.5,30.16,WNW,294,5.0,8.0,43,0.00,,---,0.00,VWS V14.01,2013-05-10 23:26:00,
2013-05-10 16:31:00,78.7,54.3,30.16,WSW,249,1.0,4.0,43,0.00,,---,0.00,VWS V14.01,2013-05-10 23:31:00,
2013-05-10 16:36:00,78.4,54.7,30.16,WSW,254,3.0,4.0,44,0.00,,---,0.00,VWS V14.01,2013-05-10 23:36:00,
2013-05-10 16:41:00,78.4,54.7,30.16,WSW,252,1.0,4.0,44,0.00,,---,0.00,VWS V14.01,2013-05-10 23:41:00,
2013-05-10 16:46:00,78.6,54.9,30.16,WSW,246,3.0,6.0,44,0.00,,---,0.00,VWS V14.01,2013-05-10 23:46:00,
2013-05-10 16:51:00,78.8,55.1,30.16,WNW,300,5.0,5.0,44,0.00,,---,0.00,VWS V14.01,2013-05-10 23:51:00,
2013-05-10 16:56:00,79.3,54.2,30.16,NW,317,4.0,7.0,42,0.00,,---,0.00,VWS V14.01,2013-05-10 23:56:00,
2013-05-10 17:01:00,79.4,55.0,30.15,WNW,301,1.0,5.0,43,0.00,,---,0.00,VWS V14.01,2013-05-11 00:01:00,
2013-05-10 17:06:00,79.6,55.8,30.15,NW,315,3.0,5.0,44,0.00,,---,0.00,VWS V14.01,2013-05-11 00:06:00,
2013-05-10 17:11:00,79.7,54.6,30.15,West,264,1.0,4.0,42,0.00,,---,0.00,VWS V14.01,2013-05-11 00:11:00,
2013-05-10 17:16:00,79.7,54.6,30.15,West,260,3.0,3.0,42,0.00,,---,0.00,VWS V14.01,2013-05-11 00:16:00,
2013-05-10 17:21:00,79.8,54.7,30.15,West,272,4.0,6.0,42,0.00,,---,0.00,VWS V14.01,2013-05-11 00:21:00,
2013-05-10 17:26:00,79.5,54.4,30.15,West,275,3.0,3.0,42,0.00,,---,0.00,VWS V14.01,2013-05-11 00:26:00,
2013-05-10 17:31:00,79.3,54.2,30.15,West,280,4.0,6.0,42,0.00,,---,0.00,VWS V14.01,2013-05-11 00:31:00,
2013-05-10 17:36:00,79.2,54.8,30.15,West,273,5.0,6.0,43,0.00,,---,0.00,VWS V14.01,2013-05-11 00:36:00,
2013-05-10 17:41:00,79.1,54.1,30.15,WSW,240,7.0,7.0,42,0.00,,---,0.00,VWS V14.01,2013-05-11 00:41:00,
2013-05-10 17:46:00,79.0,54.6,30.15,WSW,255,8.0,8.0,43,0.00,,---,0.00,VWS V14.01,2013-05-11 00:46:00,
2013-05-10 17:51:00,78.9,53.9,30.15,WNW,282,5.0,6.0,42,0.00,,---,0.00,VWS V14.01,2013-05-11 00:51:00,
2013-05-10 17:57:00,79.0,54.6,30.15,West,263,6.0,6.0,43,0.00,,---,0.00,VWS V14.01,2013-05-11 00:57:00,
2013-05-10 18:02:00,78.9,54.5,30.15,WSW,240,2.0,5.0,43,0.00,,---,0.00,VWS V14.01,2013-05-11 01:02:00,
2013-05-10 18:07:00,78.9,53.9,30.15,West,267,5.0,8.0,42,0.00,,---,0.00,VWS V14.01,2013-05-11 01:07:00,
2013-05-10 18:12:00,78.5,54.8,30.15,West,261,3.0,8.0,44,0.00,,---,0.00,VWS V14.01,2013-05-11 01:12:00,
2013-05-10 18:17:00,78.3,54.0,30.15,West,259,2.0,7.0,43,0.00,,---,0.00,VWS V14.01,2013-05-11 01:17:00,
2013-05-10 18:22:00,78.3,54.0,30.15,West,269,4.0,6.0,43,0.00,,---,0.00,VWS V14.01,2013-05-11 01:22:00,
2013-05-10 18:27:00,78.2,53.9,30.15,West,275,5.0,8.0,43,0.00,,---,0.00,VWS V14.01,2013-05-11 01:27:00,
2013-05-10 18:32:00,78.2,54.5,30.15,WNW,283,6.0,8.0,44,0.00,,---,0.00,VWS V14.01,2013-05-11 01:32:00,
2013-05-10 18:37:00,77.9,54.3,30.15,West,275,5.0,7.0,44,0.00,,---,0.00,VWS V14.01,2013-05-11 01:37:00,
2013-05-10 18:42:00,77.3,54.9,30.15,West,264,4.0,5.0,46,0.00,,---,0.00,VWS V14.01,2013-05-11 01:42:00,
2013-05-10 18:47:00,76.8,54.5,30.14,NW,307,1.0,4.0,46,0.00,,---,0.00,VWS V14.01,2013-05-11 01:47:00,
2013-05-10 18:52:00,76.6,54.9,30.15,West,270,1.0,3.0,47,0.00,,---,0.00,VWS V14.01,2013-05-11 01:52:00,
2013-05-10 18:57:00,76.3,55.2,30.15,WNW,287,0.0,2.0,48,0.00,,---,0.00,VWS V14.01,2013-05-11 01:57:00,
2013-05-10 19:02:00,76.1,55.6,30.15,WNW,287,2.0,3.0,49,0.00,,---,0.00,VWS V14.01,2013-05-11 02:02:00,
2013-05-10 19:07:00,75.9,55.4,30.15,WNW,298,1.0,4.0,49,0.00,,---,0.00,VWS V14.01,2013-05-11 02:07:00,
2013-05-10 19:12:00,75.8,55.3,30.15,WNW,298,0.0,1.0,49,0.00,,---,0.00,VWS V14.01,2013-05-11 02:12:00,
2013-05-10 19:17:00,75.7,55.2,30.15,WNW,298,0.0,2.0,49,0.00,,---,0.00,VWS V14.01,2013-05-11 02:17:00,
2013-05-10 19:22:00,75.6,55.7,30.15,WNW,298,1.0,2.0,50,0.00,,---,0.00,VWS V14.01,2013-05-11 02:22:00,
2013-05-10 19:27:00,75.5,55.0,30.15,WNW,298,0.0,1.0,49,0.00,,---,0.00,VWS V14.01,2013-05-11 02:27:00,
2013-05-10 19:32:00,75.3,55.4,30.15,WNW,298,0.0,1.0,50,0.00,,---,0.00,VWS V14.01,2013-05-11 02:32:00,
2013-05-10 19:37:00,75.2,54.8,30.15,WNW,298,0.0,1.0,49,0.00,,---,0.00,VWS V14.01,2013-05-11 02:37:00,
2013-05-10 19:42:00,75.1,54.7,30.15,WNW,298,0.0,0.0,49,0.00,,---,0.00,VWS V14.01,2013-05-11 02:42:00,
2013-05-10 19:47:00,74.9,54.5,30.15,WNW,298,0.0,0.0,49,0.00,,---,0.00,VWS V14.01,2013-05-11 02:47:00,
2013-05-10 19:52:00,74.8,54.4,30.15,WNW,298,0.0,1.0,49,0.00,,---,0.00,VWS V14.01,2013-05-11 02:52:00,
2013-05-10 19:57:00,74.6,54.2,30.15,WNW,298,1.0,1.0,49,0.00,,---,0.00,VWS V14.01,2013-05-11 02:57:00,
2013-05-10 20:02:00,74.4,55.7,30.16,WNW,298,0.0,1.0,52,0.00,,---,0.00,VWS V14.01,2013-05-11 03:02:00,
2013-05-10 20:07:00,74.1,56.4,30.16,ENE,63,0.0,1.0,54,0.00,,---,0.00,VWS V14.01,2013-05-11 03:07:00,
2013-05-10 20:12:00,73.7,56.5,30.16,ENE,63,0.0,2.0,55,0.00,,---,0.00,VWS V14.01,2013-05-11 03:12:00,
2013-05-10 20:17:00,73.3,56.2,30.16,ENE,63,0.0,0.0,55,0.00,,---,0.00,VWS V14.01,2013-05-11 03:17:00,
2013-05-10 20:22:00,72.9,56.3,30.16,ENE,63,1.0,2.0,56,0.00,,---,0.00,VWS V14.01,2013-05-11 03:22:00,
2013-05-10 20:27:00,72.5,55.9,30.16,ENE,65,0.0,1.0,56,0.00,,---,0.00,VWS V14.01,2013-05-11 03:27:00,
2013-05-10 20:32:00,72.1,56.0,30.16,ENE,65,2.0,2.0,57,0.00,,---,0.00,VWS V14.01,2013-05-11 03:32:00,
2013-05-10 20:37:00,71.7,55.7,30.16,ENE,65,1.0,3.0,57,0.00,,---,0.00,VWS V14.01,2013-05-11 03:37:00,
2013-05-10 20:42:00,71.3,55.3,30.16,ENE,65,2.0,2.0,57,0.00,,---,0.00,VWS V14.01,2013-05-11 03:42:00,
2013-05-10 20:47:00,71.1,55.6,30.16,ENE,65,1.0,2.0,58,0.00,,---,0.00,VWS V14.01,2013-05-11 03:47:00,
2013-05-10 20:52:00,70.7,55.2,30.16,ENE,65,1.0,1.0,58,0.00,,---,0.00,VWS V14.01,2013-05-11 03:52:00,
2013-05-10 20:57:00,70.4,55.4,30.17,ENE,65,1.0,3.0,59,0.00,,---,0.00,VWS V14.01,2013-05-11 03:57:00,
2013-05-10 21:01:00,70.2,55.2,30.16,ENE,65,2.0,3.0,59,0.00,,---,0.00,VWS V14.01,2013-05-11 04:01:00,
2013-05-10 21:02:00,70.2,55.2,30.16,ENE,65,1.0,2.0,59,0.00,,---,0.00,VWS V14.01,2013-05-11 04:02:00,
2013-05-10 21:04:00,70.1,55.6,30.17,ENE,65,1.0,2.0,60,0.00,,---,0.00,VWS V14.01,2013-05-11 04:04:00,
2013-05-10 21:09:00,69.9,55.4,30.17,ENE,65,1.0,3.0,60,0.00,,---,0.00,VWS V14.01,2013-05-11 04:09:00,
2013-05-10 21:15:00,69.7,55.2,30.17,ENE,65,1.0,1.0,60,0.00,,---,0.00,VWS V14.01,2013-05-11 04:15:00,
2013-05-10 21:20:00,69.5,55.0,30.17,ENE,65,1.0,1.0,60,0.00,,---,0.00,VWS V14.01,2013-05-11 04:20:00,
2013-05-10 21:25:00,69.4,54.5,30.17,ENE,65,0.0,0.0,59,0.00,,---,0.00,VWS V14.01,2013-05-11 04:25:00,
2013-05-10 21:30:00,69.2,54.7,30.17,ENE,65,0.0,0.0,60,0.00,,---,0.00,VWS V14.01,2013-05-11 04:30:00,
2013-05-10 21:35:00,69.0,55.0,30.17,ENE,65,0.0,0.0,61,0.00,,---,0.00,VWS V14.01,2013-05-11 04:35:00,
2013-05-10 21:40:00,68.7,55.2,30.17,ENE,65,0.0,0.0,62,0.00,,---,0.00,VWS V14.01,2013-05-11 04:40:00,
2013-05-10 21:45:00,68.5,54.5,30.17,ENE,65,0.0,0.0,61,0.00,,---,0.00,VWS V14.01,2013-05-11 04:45:00,
2013-05-10 21:50:00,68.3,55.2,30.17,ENE,65,0.0,0.0,63,0.00,,---,0.00,VWS V14.01,2013-05-11 04:50:00,
2013-05-10 21:55:00,68.1,55.0,30.17,ENE,65,0.0,0.0,63,0.00,,---,0.00,VWS V14.01,2013-05-11 04:55:00,
2013-05-10 22:00:00,68.0,55.0,30.17,ENE,65,0.0,0.0,63,0.00,,---,0.00,VWS V14.01,2013-05-11 05:00:00,
2013-05-10 22:05:00,68.1,55.0,30.17,ENE,65,0.0,0.0,63,0.00,,---,0.00,VWS V14.01,2013-05-11 05:05:00,
2013-05-10 22:10:00,68.0,55.0,30.18,ENE,65,0.0,0.0,63,0.00,,---,0.00,VWS V14.01,2013-05-11 05:10:00,
2013-05-10 22:16:00,67.8,55.2,30.18,ENE,65,0.0,0.0,64,0.00,,---,0.00,VWS V14.01,2013-05-11 05:16:00,
2013-05-10 22:21:00,67.5,55.3,30.18,ENE,65,0.0,0.0,65,0.00,,---,0.00,VWS V14.01,2013-05-11 05:21:00,
2013-05-10 22:26:00,67.2,55.0,30.18,ENE,65,0.0,0.0,65,0.00,,---,0.00,VWS V14.01,2013-05-11 05:26:00,
2013-05-10 22:31:00,67.0,55.3,30.18,ENE,65,0.0,0.0,66,0.00,,---,0.00,VWS V14.01,2013-05-11 05:31:00,
2013-05-10 22:36:00,66.8,55.1,30.18,ENE,65,0.0,1.0,66,0.00,,---,0.00,VWS V14.01,2013-05-11 05:36:00,
2013-05-10 22:41:00,66.6,54.5,30.18,ENE,65,0.0,1.0,65,0.00,,---,0.00,VWS V14.01,2013-05-11 05:41:00,
2013-05-10 22:46:00,66.4,54.7,30.18,ENE,65,0.0,0.0,66,0.00,,---,0.00,VWS V14.01,2013-05-11 05:46:00,
2013-05-10 22:51:00,66.2,53.7,30.18,ENE,65,2.0,2.0,64,0.00,,---,0.00,VWS V14.01,2013-05-11 05:51:00,
2013-05-10 22:56:00,66.0,53.1,30.18,ENE,65,1.0,1.0,63,0.00,,---,0.00,VWS V14.01,2013-05-11 05:56:00,
2013-05-10 23:01:00,65.9,53.8,30.18,ENE,65,0.0,0.0,65,0.00,,---,0.00,VWS V14.01,2013-05-11 06:01:00,
2013-05-10 23:06:00,65.8,53.7,30.18,ENE,65,1.0,3.0,65,0.00,,---,0.00,VWS V14.01,2013-05-11 06:06:00,
2013-05-10 23:11:00,65.6,53.5,30.18,ENE,65,2.0,3.0,65,0.00,,---,0.00,VWS V14.01,2013-05-11 06:11:00,
2013-05-10 23:16:00,65.4,53.3,30.18,ENE,65,0.0,1.0,65,0.00,,---,0.00,VWS V14.01,2013-05-11 06:16:00,
2013-05-10 23:21:00,65.2,53.6,30.19,ENE,65,0.0,0.0,66,0.00,,---,0.00,VWS V14.01,2013-05-11 06:21:00,
2013-05-10 23:26:00,64.9,53.7,30.19,ENE,65,0.0,1.0,67,0.00,,---,0.00,VWS V14.01,2013-05-11 06:26:00,
2013-05-10 23:31:00,64.7,53.5,30.19,ENE,65,0.0,0.0,67,0.00,,---,0.00,VWS V14.01,2013-05-11 06:31:00,
2013-05-10 23:36:00,64.5,53.3,30.19,ENE,65,0.0,0.0,67,0.00,,---,0.00,VWS V14.01,2013-05-11 06:36:00,
2013-05-10 23:41:00,64.2,53.8,30.19,ENE,65,0.0,1.0,69,0.00,,---,0.00,VWS V14.01,2013-05-11 06:41:00,
2013-05-10 23:46:00,63.9,53.5,30.19,ENE,65,0.0,0.0,69,0.00,,---,0.00,VWS V14.01,2013-05-11 06:46:00,
2013-05-10 23:51:00,63.7,53.3,30.19,ENE,65,0.0,0.0,69,0.00,,---,0.00,VWS V14.01,2013-05-11 06:51:00,
2013-05-10 23:56:00,63.7,53.7,30.19,ENE,65,0.0,1.0,70,0.00,,---,0.00,VWS V14.01,2013-05-11 06:56:00,